createdAt,value
2022-09-30T00:01:10.615Z,3.28
2022-09-30T00:03:15.840Z,3.28
2022-09-30T00:05:21.403Z,3.29
2022-09-30T00:07:26.808Z,3.25
2022-09-30T00:09:32.377Z,3.18
2022-09-30T00:11:39.599Z,3.16
2022-09-30T00:13:49.450Z,3.16
2022-09-30T00:15:54.736Z,3.14
2022-09-30T00:18:00.078Z,3.11
2022-09-30T00:20:05.220Z,3.11
2022-09-30T00:22:10.621Z,3.09
2022-09-30T00:24:15.850Z,3.1
2022-09-30T00:26:21.091Z,3.07
2022-09-30T00:28:26.270Z,3.03
2022-09-30T00:30:31.691Z,3.01
2022-09-30T00:32:36.805Z,2.99
2022-09-30T00:34:42.023Z,2.98
2022-09-30T00:36:47.112Z,2.96
2022-09-30T00:38:54.281Z,2.98
2022-09-30T00:40:59.585Z,2.96
2022-09-30T00:43:04.775Z,2.95
2022-09-30T00:45:10.060Z,2.95
2022-09-30T00:47:15.252Z,2.96
2022-09-30T00:49:20.450Z,2.93
2022-09-30T00:51:25.992Z,2.95
2022-09-30T00:53:31.326Z,2.96
2022-09-30T00:55:36.745Z,2.99
2022-09-30T00:57:41.961Z,3
2022-09-30T00:59:47.344Z,2.99
2022-09-30T01:01:52.618Z,2.95
2022-09-30T01:03:58.124Z,2.95
2022-09-30T01:06:03.812Z,2.92
2022-09-30T01:08:09.446Z,2.9
2022-09-30T01:10:14.937Z,2.88
2022-09-30T01:12:20.137Z,2.83
2022-09-30T01:14:25.200Z,2.85
2022-09-30T01:16:30.633Z,2.8
2022-09-30T01:18:36.430Z,2.81
2022-09-30T01:20:41.921Z,2.82
2022-09-30T01:22:46.809Z,2.88
2022-09-30T01:24:51.973Z,2.91
2022-09-30T01:26:57.062Z,2.93
2022-09-30T01:29:03.383Z,2.97
2022-09-30T01:31:09.755Z,2.97
2022-09-30T01:33:15.403Z,2.97
2022-09-30T01:35:20.838Z,2.97
2022-09-30T01:37:26.056Z,2.97
2022-09-30T01:39:31.150Z,2.91
2022-09-30T01:41:37.187Z,2.91
2022-09-30T01:43:42.473Z,2.93
2022-09-30T01:45:48.459Z,2.95
2022-09-30T01:47:53.904Z,2.96
2022-09-30T01:49:59.302Z,2.98
2022-09-30T01:52:04.585Z,2.99
2022-09-30T01:54:09.962Z,2.99
2022-09-30T01:56:15.354Z,2.98
2022-09-30T01:58:20.783Z,2.94
2022-09-30T02:00:26.459Z,2.95
2022-09-30T02:02:32.473Z,2.98
2022-09-30T02:04:37.733Z,3
2022-09-30T02:06:42.896Z,2.97
2022-09-30T02:08:48.344Z,2.96
2022-09-30T02:10:54.240Z,2.94
2022-09-30T02:12:59.873Z,2.91
2022-09-30T02:15:04.925Z,2.93
2022-09-30T02:17:10.482Z,2.94
2022-09-30T02:19:16.122Z,2.93
2022-09-30T02:21:21.575Z,2.87
2022-09-30T02:23:27.332Z,2.87
2022-09-30T02:25:32.754Z,2.81
2022-09-30T02:27:38.147Z,2.78
2022-09-30T02:29:43.412Z,2.73
2022-09-30T02:31:49.387Z,2.66
2022-09-30T02:33:55.068Z,2.6
2022-09-30T02:36:00.896Z,2.59
2022-09-30T02:38:12.758Z,2.55
2022-09-30T02:40:18.124Z,2.49
2022-09-30T02:42:23.134Z,2.48
2022-09-30T02:44:28.199Z,2.47
2022-09-30T02:46:33.584Z,2.43
2022-09-30T02:48:39.238Z,2.37
2022-09-30T02:50:44.265Z,2.33
2022-09-30T02:52:49.604Z,2.29
2022-09-30T02:54:55.045Z,2.29
2022-09-30T02:57:00.166Z,2.25
2022-09-30T02:59:05.585Z,2.23
2022-09-30T03:01:10.922Z,2.23
2022-09-30T03:03:16.627Z,2.16
2022-09-30T03:05:21.769Z,2.15
2022-09-30T03:07:27.263Z,2.16
2022-09-30T03:09:32.525Z,2.16
2022-09-30T03:11:38.473Z,2.14
2022-09-30T03:13:43.737Z,2.11
2022-09-30T03:15:50.902Z,2.08
2022-09-30T03:17:56.601Z,2.07
2022-09-30T03:20:02.003Z,2.05
2022-09-30T03:22:10.041Z,2.06
2022-09-30T03:24:15.505Z,2.07
2022-09-30T03:26:20.789Z,2.06
2022-09-30T03:28:26.268Z,2.03
2022-09-30T03:30:31.788Z,2.04
2022-09-30T03:32:38.153Z,2.02
2022-09-30T03:34:44.113Z,2.07
2022-09-30T03:36:49.809Z,2.09
2022-09-30T03:38:55.246Z,2.1
2022-09-30T03:41:00.975Z,2.1
2022-09-30T03:43:06.183Z,2.14
2022-09-30T03:45:11.659Z,2.14
2022-09-30T03:47:20.715Z,2.17
2022-09-30T03:49:26.937Z,2.19
2022-09-30T03:51:32.413Z,2.19
2022-09-30T03:53:38.148Z,2.22
2022-09-30T03:55:43.403Z,2.23
2022-09-30T03:57:48.732Z,2.23
2022-09-30T03:59:54.365Z,2.22
2022-09-30T04:02:00.160Z,2.27
2022-09-30T04:04:05.984Z,2.3
2022-09-30T04:06:11.550Z,2.3
2022-09-30T04:08:16.905Z,2.33
2022-09-30T04:10:22.693Z,2.41
2022-09-30T04:12:28.513Z,2.38
2022-09-30T04:14:34.003Z,2.4
2022-09-30T04:16:39.749Z,2.41
2022-09-30T04:18:45.309Z,2.46
2022-09-30T04:20:51.241Z,2.39
2022-09-30T04:22:57.299Z,2.43
2022-09-30T04:25:02.545Z,2.4
2022-09-30T04:27:07.933Z,2.36
2022-09-30T04:29:13.717Z,2.32
2022-09-30T04:31:19.937Z,2.25
2022-09-30T04:33:26.395Z,2.24
2022-09-30T04:35:31.932Z,2.25
2022-09-30T04:37:37.749Z,2.27
2022-09-30T04:39:43.427Z,2.31
2022-09-30T04:41:49.508Z,2.32
2022-09-30T04:43:55.552Z,2.35
2022-09-30T04:46:01.580Z,2.4
2022-09-30T04:48:07.844Z,2.4
2022-09-30T04:50:13.065Z,2.44
2022-09-30T04:52:19.323Z,2.45
2022-09-30T04:54:24.777Z,2.46
2022-09-30T04:56:29.922Z,2.47
2022-09-30T04:58:37.093Z,2.54
2022-09-30T05:00:42.779Z,2.63
2022-09-30T05:02:48.287Z,2.65
2022-09-30T05:04:53.626Z,2.65
2022-09-30T05:06:59.087Z,2.62
2022-09-30T05:09:05.390Z,2.71
2022-09-30T05:11:11.828Z,2.75
2022-09-30T05:13:17.884Z,2.91
2022-09-30T05:15:23.933Z,3.03
2022-09-30T05:17:29.658Z,3.13
2022-09-30T05:19:35.561Z,3.15
2022-09-30T05:21:40.971Z,3.18
2022-09-30T05:23:46.612Z,3.3
2022-09-30T05:25:52.307Z,3.4
2022-09-30T05:27:58.722Z,3.51
2022-09-30T05:30:04.375Z,3.63
2022-09-30T05:32:12.946Z,3.73
2022-09-30T05:34:19.149Z,3.85
2022-09-30T05:36:25.019Z,3.92
2022-09-30T05:38:31.080Z,3.94
2022-09-30T05:40:37.148Z,4.05
2022-09-30T05:42:43.604Z,4.07
2022-09-30T05:44:49.953Z,4.09
2022-09-30T05:47:02.681Z,4.03
2022-09-30T05:49:09.677Z,4.16
2022-09-30T05:51:16.140Z,4.32
2022-09-30T05:53:22.222Z,4.46
2022-09-30T05:55:28.530Z,4.6
2022-09-30T05:57:41.507Z,4.7
2022-09-30T05:59:47.886Z,4.7
2022-09-30T06:01:54.210Z,4.75
2022-09-30T06:04:01.006Z,4.83
2022-09-30T06:06:07.177Z,4.91
2022-09-30T06:08:13.334Z,5
2022-09-30T06:10:20.108Z,5.03
2022-09-30T06:12:26.300Z,5.01
2022-09-30T06:14:32.541Z,5.14
2022-09-30T06:16:39.088Z,5.24
2022-09-30T06:18:45.288Z,5.38
2022-09-30T06:20:50.699Z,5.4
2022-09-30T06:22:56.966Z,5.48
2022-09-30T06:25:03.058Z,5.58
2022-09-30T06:27:09.279Z,5.73
2022-09-30T06:29:15.509Z,5.84
2022-09-30T06:31:21.963Z,5.97
2022-09-30T06:33:28.185Z,6.04
2022-09-30T06:35:34.187Z,6.09
2022-09-30T06:37:40.664Z,6.13
2022-09-30T06:39:46.931Z,6.22
2022-09-30T06:41:52.737Z,6.33
2022-09-30T06:44:04.049Z,6.37
2022-09-30T06:46:22.096Z,6.47
2022-09-30T06:48:38.894Z,6.64
2022-09-30T06:50:56.297Z,6.63
2022-09-30T06:53:07.490Z,6.81
2022-09-30T06:55:13.749Z,6.94
2022-09-30T06:57:19.670Z,7.08
2022-09-30T06:59:40.097Z,7.23
2022-09-30T07:01:45.513Z,7.4
2022-09-30T07:03:54.553Z,7.55
2022-09-30T07:06:01.703Z,7.83
2022-09-30T07:08:09.049Z,8.07
2022-09-30T07:10:14.941Z,8.19
2022-09-30T07:12:20.586Z,8.43
2022-09-30T07:14:26.033Z,8.49
2022-09-30T07:16:31.481Z,8.78
2022-09-30T07:18:37.336Z,8.84
2022-09-30T07:23:14.301Z,8.89
2022-09-30T07:25:22.563Z,9.17
2022-09-30T07:27:28.459Z,9.4
2022-09-30T07:29:50.353Z,9.38
2022-09-30T07:32:31.052Z,9.57
2022-09-30T07:34:38.490Z,9.63
2022-09-30T07:36:44.858Z,9.85
2022-09-30T07:38:51.176Z,10.09
2022-09-30T07:40:57.573Z,10.13
2022-09-30T07:43:03.817Z,10.32
2022-09-30T07:45:09.895Z,10.18
2022-09-30T07:47:15.279Z,10.09
2022-09-30T07:49:21.163Z,10.28
2022-09-30T07:51:28.196Z,10.4
2022-09-30T07:53:34.466Z,10.23
2022-09-30T07:55:40.904Z,10.32
2022-09-30T07:57:47.329Z,10.3
2022-09-30T07:59:53.369Z,10.59
2022-09-30T08:01:59.422Z,10.87
2022-09-30T08:04:06.393Z,11.07
2022-09-30T08:06:12.044Z,11.06
2022-09-30T08:08:27.095Z,11.05
2022-09-30T08:10:33.427Z,11.07
2022-09-30T08:12:39.776Z,11.33
2022-09-30T08:14:45.902Z,11.47
2022-09-30T08:16:51.728Z,11.43
2022-09-30T08:18:57.448Z,11.08
2022-09-30T08:21:03.105Z,11.45
2022-09-30T08:23:08.698Z,11.34
2022-09-30T08:25:15.930Z,11.23
2022-09-30T08:27:22.379Z,11.29
2022-09-30T08:29:54.777Z,11.28
2022-09-30T08:32:11.861Z,11.82
2022-09-30T08:34:18.420Z,12.04
2022-09-30T08:36:24.644Z,12.19
2022-09-30T08:38:30.557Z,12.17
2022-09-30T08:40:37.057Z,12.3
2022-09-30T08:42:49.060Z,12.16
2022-09-30T08:45:02.417Z,12.12
2022-09-30T08:47:08.583Z,12.13
2022-09-30T08:49:14.638Z,12.1
2022-09-30T08:51:20.699Z,12.27
2022-09-30T08:53:31.272Z,12.4
2022-09-30T08:55:37.716Z,12.54
2022-09-30T08:57:47.522Z,12.46
2022-09-30T08:59:53.692Z,12.46
2022-09-30T09:02:00.473Z,12.88
2022-09-30T09:04:07.677Z,13.19
2022-09-30T09:06:15.313Z,13.26
2022-09-30T09:08:21.242Z,13.44
2022-09-30T09:10:27.526Z,13.63
2022-09-30T09:12:33.573Z,13.45
2022-09-30T09:14:39.622Z,13.63
2022-09-30T09:16:52.438Z,13.78
2022-09-30T09:18:58.396Z,13.25
2022-09-30T09:21:03.923Z,13.41
2022-09-30T09:23:10.094Z,13.42
2022-09-30T09:25:15.563Z,13.38
2022-09-30T09:27:21.237Z,13.12
2022-09-30T09:29:27.628Z,13.04
2022-09-30T09:31:33.804Z,13.03
2022-09-30T09:33:39.985Z,12.92
2022-09-30T09:35:45.463Z,12.98
2022-09-30T09:37:51.331Z,12.74
2022-09-30T09:40:03.058Z,12.95
2022-09-30T09:42:09.938Z,12.94
2022-09-30T09:44:15.633Z,13.04
2022-09-30T09:46:21.455Z,13.2
2022-09-30T09:48:27.782Z,13.02
2022-09-30T09:50:34.157Z,13.22
2022-09-30T09:52:40.384Z,13.3
2022-09-30T09:54:46.002Z,13.42
2022-09-30T09:56:51.427Z,13.5
2022-09-30T09:58:56.992Z,13.68
2022-09-30T10:01:06.219Z,13.85
2022-09-30T10:03:15.728Z,13.76
2022-09-30T10:05:22.928Z,13.79
2022-09-30T10:07:28.946Z,13.88
2022-09-30T10:09:35.093Z,13.92
2022-09-30T10:11:41.499Z,13.81
2022-09-30T10:13:47.746Z,13.86
2022-09-30T10:15:53.812Z,13.9
2022-09-30T10:17:59.797Z,13.81
2022-09-30T10:20:08.929Z,13.56
2022-09-30T10:22:14.941Z,13.5
2022-09-30T10:24:21.517Z,13.42
2022-09-30T10:26:28.438Z,13.59
2022-09-30T10:28:35.131Z,13.75
2022-09-30T10:30:41.350Z,13.45
2022-09-30T10:32:47.913Z,13.47
2022-09-30T10:34:53.568Z,13.79
2022-09-30T10:36:59.463Z,13.77
2022-09-30T10:39:07.110Z,13.69
2022-09-30T10:41:14.499Z,13.88
2022-09-30T10:43:20.733Z,14.01
2022-09-30T10:45:28.250Z,13.89
2022-09-30T10:47:37.121Z,13.71
2022-09-30T10:49:43.923Z,13.93
2022-09-30T10:51:49.915Z,13.95
2022-09-30T10:53:58.674Z,14.12
2022-09-30T10:56:05.737Z,13.95
2022-09-30T10:58:11.955Z,13.79
2022-09-30T11:00:18.221Z,13.89
2022-09-30T11:02:24.024Z,13.85
2022-09-30T11:04:30.141Z,13.84
2022-09-30T11:06:36.994Z,13.67
2022-09-30T11:08:43.215Z,13.57
2022-09-30T11:10:50.844Z,13.48
2022-09-30T11:12:56.577Z,13.6
2022-09-30T11:15:05.381Z,13.66
2022-09-30T11:17:13.069Z,13.62
2022-09-30T11:19:26.160Z,13.54
2022-09-30T11:21:32.432Z,13.34
2022-09-30T11:23:38.506Z,13.4
2022-09-30T11:25:45.022Z,13.27
2022-09-30T11:27:51.021Z,13.41
2022-09-30T11:29:57.326Z,13.47
2022-09-30T11:32:03.627Z,13.55
2022-09-30T11:34:10.105Z,13.47
2022-09-30T11:36:16.304Z,13.5
2022-09-30T11:38:22.687Z,13.53
2022-09-30T11:40:28.946Z,13.54
2022-09-30T11:42:38.283Z,13.59
2022-09-30T11:44:44.596Z,13.58
2022-09-30T11:46:50.893Z,13.43
2022-09-30T11:48:57.039Z,13.4
2022-09-30T11:51:03.559Z,13.35
2022-09-30T11:53:09.908Z,13.4
2022-09-30T11:55:17.251Z,13.23
2022-09-30T11:57:23.963Z,13.31
2022-09-30T11:59:30.048Z,13.56
2022-09-30T12:01:36.448Z,13.57
2022-09-30T12:03:43.059Z,13.42
2022-09-30T12:05:49.200Z,13.37
2022-09-30T12:07:57.887Z,13.29
2022-09-30T12:10:03.896Z,13.25
2022-09-30T12:12:13.894Z,13.06
2022-09-30T12:14:22.379Z,12.97
2022-09-30T12:16:28.720Z,13.15
2022-09-30T12:18:36.943Z,13.36
2022-09-30T12:20:43.123Z,13.24
2022-09-30T12:22:49.353Z,13.28
2022-09-30T12:24:55.594Z,13.11
2022-09-30T12:27:02.060Z,12.96
2022-09-30T12:29:08.528Z,13.02
2022-09-30T12:31:14.566Z,13.19
2022-09-30T12:33:21.231Z,13.32
2022-09-30T12:35:27.547Z,13.39
2022-09-30T12:37:33.609Z,13.35
2022-09-30T12:39:39.925Z,13.36
2022-09-30T12:41:46.068Z,13.34
2022-09-30T12:43:52.396Z,13.2
2022-09-30T12:46:00.017Z,13.23
2022-09-30T12:48:06.587Z,13.37
2022-09-30T12:50:19.936Z,13.2
2022-09-30T12:52:28.109Z,13.35
2022-09-30T12:54:34.278Z,13.26
2022-09-30T12:56:47.907Z,13.23
2022-09-30T12:58:54.427Z,13
2022-09-30T13:01:00.994Z,13.19
2022-09-30T13:03:09.108Z,13.03
2022-09-30T13:05:15.616Z,12.8
2022-09-30T13:07:22.054Z,12.65
2022-09-30T13:09:28.365Z,12.75
2022-09-30T13:11:34.782Z,12.78
2022-09-30T13:13:44.226Z,12.7
2022-09-30T13:15:50.549Z,12.6
2022-09-30T13:17:56.748Z,12.56
2022-09-30T13:20:02.969Z,12.65
2022-09-30T13:22:10.435Z,12.8
2022-09-30T13:24:16.722Z,12.75
2022-09-30T13:26:23.719Z,12.82
2022-09-30T13:28:30.526Z,12.78
2022-09-30T13:30:36.985Z,12.47
2022-09-30T13:32:43.372Z,12.43
2022-09-30T13:34:50.151Z,12.54
2022-09-30T13:36:56.846Z,12.43
2022-09-30T13:39:03.350Z,12.45
2022-09-30T13:41:10.227Z,12.57
2022-09-30T13:43:17.007Z,12.46
2022-09-30T13:45:23.533Z,12.37
2022-09-30T13:47:30.450Z,12.48
2022-09-30T13:49:36.766Z,12.56
2022-09-30T13:51:44.918Z,12.54
2022-09-30T13:53:51.634Z,12.6
2022-09-30T13:56:01.073Z,12.73
2022-09-30T13:58:07.645Z,12.66
2022-09-30T14:00:14.226Z,12.82
2022-09-30T14:02:22.834Z,12.81
2022-09-30T14:04:29.497Z,12.78
2022-09-30T14:06:35.750Z,12.76
2022-09-30T14:08:41.748Z,12.75
2022-09-30T14:10:48.429Z,12.76
2022-09-30T14:12:54.791Z,12.91
2022-09-30T14:15:01.307Z,12.83
2022-09-30T14:17:08.743Z,12.88
2022-09-30T14:19:15.025Z,12.87
2022-09-30T14:21:21.604Z,12.64
2022-09-30T14:23:28.762Z,12.71
2022-09-30T14:25:35.153Z,12.61
2022-09-30T14:27:41.235Z,12.48
2022-09-30T14:29:47.991Z,12.42
2022-09-30T14:31:54.444Z,12.38
2022-09-30T14:34:01.005Z,12.43
2022-09-30T14:36:07.309Z,12.45
2022-09-30T14:38:13.628Z,12.52
2022-09-30T14:40:20.371Z,12.53
2022-09-30T14:42:26.698Z,12.55
2022-09-30T14:44:32.760Z,12.52
2022-09-30T14:46:39.086Z,12.44
2022-09-30T14:48:45.332Z,12.35
2022-09-30T14:50:53.371Z,12.39
2022-09-30T14:53:00.006Z,12.41
2022-09-30T14:55:06.185Z,12.36
2022-09-30T14:57:12.827Z,12.24
2022-09-30T14:59:19.072Z,12.18
2022-09-30T15:01:25.565Z,12.16
2022-09-30T15:03:32.131Z,12.16
2022-09-30T15:05:38.548Z,12.11
2022-09-30T15:07:44.987Z,12.02
2022-09-30T15:09:51.617Z,12.09
2022-09-30T15:11:58.068Z,12.09
2022-09-30T15:14:04.331Z,12.09
2022-09-30T15:16:10.518Z,12.11
2022-09-30T15:18:17.475Z,12.11
2022-09-30T15:20:23.789Z,12.08
2022-09-30T15:22:30.265Z,12.1
2022-09-30T15:24:36.840Z,12.09
2022-09-30T15:26:43.083Z,12.08
2022-09-30T15:28:49.893Z,12.02
2022-09-30T15:30:59.222Z,11.96
2022-09-30T15:33:05.623Z,11.96
2022-09-30T15:35:13.064Z,11.96
2022-09-30T15:37:19.410Z,11.94
2022-09-30T15:39:26.009Z,11.87
2022-09-30T15:41:32.314Z,11.83
2022-09-30T15:43:39.252Z,11.73
2022-09-30T15:45:47.656Z,11.7
2022-09-30T15:47:54.449Z,11.7
2022-09-30T15:50:02.386Z,11.69
2022-09-30T15:52:14.581Z,11.67
2022-09-30T15:54:28.488Z,11.64
2022-09-30T15:56:39.487Z,11.59
2022-09-30T15:58:45.721Z,11.49
2022-09-30T16:00:52.425Z,11.48
2022-09-30T16:02:59.167Z,11.44
2022-09-30T16:05:05.798Z,11.39
2022-09-30T16:07:12.620Z,11.37
2022-09-30T16:09:21.790Z,11.3
2022-09-30T16:11:28.632Z,11.23
2022-09-30T16:13:41.868Z,11.26
2022-09-30T16:15:51.514Z,11.24
2022-09-30T16:18:04.067Z,11.25
2022-09-30T16:20:11.069Z,11.27
2022-09-30T16:22:21.130Z,11.25
2022-09-30T16:24:32.687Z,11.26
2022-09-30T16:26:48.448Z,11.25
2022-09-30T16:28:56.437Z,11.2
2022-09-30T16:31:03.620Z,11.12
2022-09-30T16:33:12.120Z,11.08
2022-09-30T16:35:19.098Z,11.12
2022-09-30T16:37:36.466Z,11.12
2022-09-30T16:39:45.298Z,11.13
2022-09-30T16:41:56.486Z,11.13
2022-09-30T16:44:05.495Z,11.11
2022-09-30T16:46:23.208Z,11.13
2022-09-30T16:48:34.534Z,11.12
2022-09-30T16:50:49.512Z,11.11
2022-09-30T16:52:58.330Z,11.11
2022-09-30T16:55:05.014Z,11.09
2022-09-30T16:57:15.336Z,11.09
2022-09-30T16:59:22.037Z,11.02
2022-09-30T17:01:29.102Z,10.97
2022-09-30T17:03:35.338Z,10.94
2022-09-30T17:05:43.418Z,10.92
2022-09-30T17:07:56.205Z,10.92
2022-09-30T17:10:03.479Z,10.93
2022-09-30T17:12:10.273Z,10.92
2022-09-30T17:14:17.226Z,10.94
2022-09-30T17:16:24.006Z,10.97
2022-09-30T17:18:31.006Z,10.91
2022-09-30T17:20:38.825Z,10.89
2022-09-30T17:22:55.663Z,10.87
2022-09-30T17:25:10.481Z,10.88
2022-09-30T17:27:17.026Z,10.87
2022-09-30T17:29:32.587Z,10.88
2022-09-30T17:31:46.325Z,10.87
2022-09-30T17:33:53.432Z,10.86
2022-09-30T17:36:02.461Z,10.85
2022-09-30T17:38:08.983Z,10.87
2022-09-30T17:40:15.655Z,10.88
2022-09-30T17:42:22.692Z,10.88
2022-09-30T17:44:32.047Z,10.87
2022-09-30T17:46:39.633Z,10.88
2022-09-30T17:48:46.478Z,10.87
2022-09-30T17:50:54.037Z,10.86
2022-09-30T17:53:02.436Z,10.87
2022-09-30T17:55:09.081Z,10.86
2022-09-30T17:57:17.575Z,10.87
2022-09-30T17:59:27.133Z,10.86
2022-09-30T18:01:37.778Z,10.87
2022-09-30T18:03:46.168Z,10.87
2022-09-30T18:05:56.237Z,10.88
2022-09-30T18:08:03.079Z,10.85
2022-09-30T18:10:12.393Z,10.85
2022-09-30T18:12:18.993Z,10.86
2022-09-30T18:14:25.789Z,10.84
2022-09-30T18:16:32.529Z,10.83
2022-09-30T18:18:40.078Z,10.83
2022-09-30T18:20:46.673Z,10.8
2022-09-30T18:22:53.836Z,10.79
2022-09-30T18:25:08.332Z,10.78
2022-09-30T18:27:21.770Z,10.77
2022-09-30T18:29:28.507Z,10.78
2022-09-30T18:31:35.917Z,10.79
2022-09-30T18:33:51.556Z,10.79
2022-09-30T18:35:58.830Z,10.77
2022-09-30T18:38:07.707Z,10.73
2022-09-30T18:40:14.717Z,10.73
2022-09-30T18:42:22.193Z,10.66
2022-09-30T18:44:28.739Z,10.61
2022-09-30T18:46:34.798Z,10.65
2022-09-30T18:48:41.019Z,10.64
2022-09-30T18:50:47.755Z,10.66
2022-09-30T18:52:54.289Z,10.66
2022-09-30T18:55:01.692Z,10.68
2022-09-30T18:57:08.741Z,10.69
2022-09-30T18:59:19.522Z,10.67
2022-09-30T19:01:31.085Z,10.68
2022-09-30T19:03:42.164Z,10.63
2022-09-30T19:05:54.187Z,10.59
2022-09-30T19:08:01.502Z,10.65
2022-09-30T19:10:08.711Z,10.66
2022-09-30T19:12:15.308Z,10.68
2022-09-30T19:14:22.750Z,10.68
2022-09-30T19:16:30.388Z,10.67
2022-09-30T19:18:43.419Z,10.69
2022-09-30T19:20:51.902Z,10.69
2022-09-30T19:22:59.137Z,10.69
2022-09-30T19:25:05.999Z,10.7
2022-09-30T19:27:12.819Z,10.68
2022-09-30T19:29:19.996Z,10.64
2022-09-30T19:31:27.094Z,10.66
2022-09-30T19:33:52.227Z,10.64
2022-09-30T19:36:14.330Z,10.64
2022-09-30T19:38:29.775Z,10.66
2022-09-30T19:40:43.402Z,10.63
2022-09-30T19:42:52.991Z,10.64
2022-09-30T19:45:07.422Z,10.7
2022-09-30T19:47:14.117Z,10.71
2022-09-30T19:49:26.379Z,10.73
2022-09-30T19:51:44.705Z,10.74
2022-09-30T19:54:02.241Z,10.74
2022-09-30T19:56:12.786Z,10.73
2022-09-30T19:58:20.463Z,10.73
2022-09-30T20:00:31.027Z,10.76
2022-09-30T20:02:41.592Z,10.79
2022-09-30T20:04:50.136Z,10.8
2022-09-30T20:09:25.283Z,10.7
2022-09-30T20:11:35.507Z,10.71
2022-09-30T20:13:45.031Z,10.74
2022-09-30T20:15:51.580Z,10.74
2022-09-30T20:17:58.442Z,10.7
2022-09-30T20:20:05.303Z,10.67
2022-09-30T20:22:13.157Z,10.68
2022-09-30T20:24:19.762Z,10.67
2022-09-30T20:26:26.866Z,10.7
2022-09-30T20:28:33.487Z,10.71
2022-09-30T20:30:42.981Z,10.72
2022-09-30T20:32:49.606Z,10.72
2022-09-30T20:34:59.008Z,10.73
2022-09-30T20:37:07.750Z,10.71
2022-09-30T20:39:14.350Z,10.69
2022-09-30T20:41:20.746Z,10.69
2022-09-30T20:43:26.913Z,10.67
2022-09-30T20:45:38.239Z,10.69
2022-09-30T20:47:44.790Z,10.7
2022-09-30T20:49:51.054Z,10.68
2022-09-30T20:51:57.240Z,10.7
2022-09-30T20:54:03.404Z,10.69
2022-09-30T20:56:10.489Z,10.7
2022-09-30T20:58:16.319Z,10.7
2022-09-30T21:00:23.109Z,10.69
2022-09-30T21:02:29.515Z,10.67
2022-09-30T21:04:36.111Z,10.67
2022-09-30T21:06:42.048Z,10.68
2022-09-30T21:08:49.327Z,10.68
2022-09-30T21:10:55.647Z,10.69
2022-09-30T21:13:01.440Z,10.69
2022-09-30T21:15:07.398Z,10.69
2022-09-30T21:17:13.460Z,10.68
2022-09-30T21:19:19.552Z,10.65
2022-09-30T21:21:27.216Z,10.65
2022-09-30T21:23:37.681Z,10.58
2022-09-30T21:25:44.587Z,10.53
2022-09-30T21:27:50.925Z,10.53
2022-09-30T21:29:57.427Z,10.52
2022-09-30T21:32:03.925Z,10.56
2022-09-30T21:34:10.732Z,10.56
2022-09-30T21:36:17.030Z,10.59
2022-09-30T21:38:23.008Z,10.62
2022-09-30T21:40:29.127Z,10.62
2022-09-30T21:42:35.204Z,10.61
2022-09-30T21:44:41.377Z,10.6
2022-09-30T21:46:48.911Z,10.52
2022-09-30T21:48:55.478Z,10.49
2022-09-30T21:51:01.874Z,10.51
2022-09-30T21:53:07.981Z,10.52
2022-09-30T21:55:14.537Z,10.55
2022-09-30T21:57:20.938Z,10.58
2022-09-30T21:59:27.026Z,10.6
2022-09-30T22:01:33.323Z,10.61
2022-09-30T22:03:41.146Z,10.59
2022-09-30T22:05:47.054Z,10.6
2022-09-30T22:07:52.701Z,10.54
2022-09-30T22:09:58.849Z,10.55
2022-09-30T22:12:04.294Z,10.58
2022-09-30T22:14:10.440Z,10.6
2022-09-30T22:16:16.592Z,10.61
2022-09-30T22:18:23.852Z,10.61
2022-09-30T22:20:32.895Z,10.53
2022-09-30T22:22:38.782Z,10.56
2022-09-30T22:24:45.734Z,10.57
2022-09-30T22:26:51.612Z,10.51
2022-09-30T22:28:57.725Z,10.5
2022-09-30T22:31:03.642Z,10.55
2022-09-30T22:33:13.109Z,10.54
2022-09-30T22:35:18.984Z,10.55
2022-09-30T22:37:24.909Z,10.56
2022-09-30T22:39:30.878Z,10.56
2022-09-30T22:41:36.878Z,10.58
2022-09-30T22:43:42.973Z,10.58
2022-09-30T22:45:48.740Z,10.59
2022-09-30T22:47:54.687Z,10.59
2022-09-30T22:50:00.106Z,10.59
2022-09-30T22:52:05.895Z,10.58
2022-09-30T22:54:11.830Z,10.58
2022-09-30T22:56:17.563Z,10.58
2022-09-30T22:58:22.868Z,10.55
2022-09-30T23:00:28.667Z,10.53
2022-09-30T23:02:34.314Z,10.55
2022-09-30T23:04:40.226Z,10.55
2022-09-30T23:06:46.238Z,10.55
2022-09-30T23:08:51.754Z,10.53
2022-09-30T23:10:57.497Z,10.52
2022-09-30T23:13:03.474Z,10.52
2022-09-30T23:15:09.127Z,10.51
2022-09-30T23:17:14.822Z,10.49
2022-09-30T23:19:20.304Z,10.5
2022-09-30T23:21:25.824Z,10.49
2022-09-30T23:23:31.782Z,10.46
2022-09-30T23:25:37.525Z,10.48
2022-09-30T23:27:43.113Z,10.47
2022-09-30T23:29:49.513Z,10.46
2022-09-30T23:31:55.410Z,10.43
2022-09-30T23:34:01.187Z,10.42
2022-09-30T23:36:06.718Z,10.42
2022-09-30T23:38:13.606Z,10.42
2022-09-30T23:40:19.137Z,10.42
2022-09-30T23:42:24.872Z,10.41
2022-09-30T23:44:30.583Z,10.34
2022-09-30T23:46:36.249Z,10.28
2022-09-30T23:48:41.715Z,10.28
2022-09-30T23:50:47.365Z,10.26
2022-09-30T23:52:52.710Z,10.24
2022-09-30T23:54:58.090Z,10.21
2022-09-30T23:57:04.935Z,10.24
2022-09-30T23:59:10.450Z,10.27
